sensor_id;sensor_type;location;lat;lon;timestamp;temperature;humidity
16966;DHT22;8599;47.852;12.070;2022-08-25T00:01:24;18.60;99.90
16966;DHT22;8599;47.852;12.070;2022-08-25T00:03:51;18.70;99.90
16966;DHT22;8599;47.852;12.070;2022-08-25T00:06:18;18.70;99.90
16966;DHT22;8599;47.852;12.070;2022-08-25T00:08:46;18.70;99.90
16966;DHT22;8599;47.852;12.070;2022-08-25T00:11:16;18.50;99.90
16966;DHT22;8599;47.852;12.070;2022-08-25T00:13:47;18.30;99.90
16966;DHT22;8599;47.852;12.070;2022-08-25T00:16:17;18.30;99.90
16966;DHT22;8599;47.852;12.070;2022-08-25T00:18:48;18.20;99.90
16966;DHT22;8599;47.852;12.070;2022-08-25T00:21:16;18.20;99.90
16966;DHT22;8599;47.852;12.070;2022-08-25T00:23:44;18.20;99.90
16966;DHT22;8599;47.852;12.070;2022-08-25T00:26:12;18.30;99.90
16966;DHT22;8599;47.852;12.070;2022-08-25T00:28:39;18.30;99.90
16966;DHT22;8599;47.852;12.070;2022-08-25T00:31:10;18.40;99.90
16966;DHT22;8599;47.852;12.070;2022-08-25T00:33:37;18.20;99.90
16966;DHT22;8599;47.852;12.070;2022-08-25T00:36:04;18.10;99.90
16966;DHT22;8599;47.852;12.070;2022-08-25T00:38:31;18.10;99.90
16966;DHT22;8599;47.852;12.070;2022-08-25T00:40:58;18.10;99.90
16966;DHT22;8599;47.852;12.070;2022-08-25T00:43:34;18.10;99.90
16966;DHT22;8599;47.852;12.070;2022-08-25T00:46:02;18.00;99.90
16966;DHT22;8599;47.852;12.070;2022-08-25T00:48:31;17.90;99.90
16966;DHT22;8599;47.852;12.070;2022-08-25T00:50:58;17.70;99.90
16966;DHT22;8599;47.852;12.070;2022-08-25T00:53:26;17.70;99.90
16966;DHT22;8599;47.852;12.070;2022-08-25T00:55:53;17.70;99.90
16966;DHT22;8599;47.852;12.070;2022-08-25T00:58:23;17.80;99.90
16966;DHT22;8599;47.852;12.070;2022-08-25T01:00:52;17.90;99.90
16966;DHT22;8599;47.852;12.070;2022-08-25T01:03:21;17.90;99.90
16966;DHT22;8599;47.852;12.070;2022-08-25T01:05:50;17.90;99.90
16966;DHT22;8599;47.852;12.070;2022-08-25T01:08:18;17.90;99.90
16966;DHT22;8599;47.852;12.070;2022-08-25T01:10:48;17.90;99.90
16966;DHT22;8599;47.852;12.070;2022-08-25T01:13:18;17.90;99.90
16966;DHT22;8599;47.852;12.070;2022-08-25T01:15:46;17.80;99.90
16966;DHT22;8599;47.852;12.070;2022-08-25T01:18:14;17.70;99.90
16966;DHT22;8599;47.852;12.070;2022-08-25T01:20:41;17.60;99.90
16966;DHT22;8599;47.852;12.070;2022-08-25T01:23:09;17.60;99.90
16966;DHT22;8599;47.852;12.070;2022-08-25T01:25:44;17.60;99.90
16966;DHT22;8599;47.852;12.070;2022-08-25T01:28:14;17.50;99.90
16966;DHT22;8599;47.852;12.070;2022-08-25T01:30:41;17.50;99.90
16966;DHT22;8599;47.852;12.070;2022-08-25T01:33:10;17.60;99.90
16966;DHT22;8599;47.852;12.070;2022-08-25T01:35:38;17.60;99.90
16966;DHT22;8599;47.852;12.070;2022-08-25T01:38:07;17.60;99.90
16966;DHT22;8599;47.852;12.070;2022-08-25T01:40:37;17.50;99.90
16966;DHT22;8599;47.852;12.070;2022-08-25T01:43:11;17.40;99.90
16966;DHT22;8599;47.852;12.070;2022-08-25T01:45:45;17.40;99.90
16966;DHT22;8599;47.852;12.070;2022-08-25T01:48:14;17.40;99.90
16966;DHT22;8599;47.852;12.070;2022-08-25T01:50:42;17.50;99.90
16966;DHT22;8599;47.852;12.070;2022-08-25T01:53:12;17.50;99.90
16966;DHT22;8599;47.852;12.070;2022-08-25T01:55:44;17.50;99.90
16966;DHT22;8599;47.852;12.070;2022-08-25T01:58:18;17.50;99.90
16966;DHT22;8599;47.852;12.070;2022-08-25T02:00:45;17.50;99.90
16966;DHT22;8599;47.852;12.070;2022-08-25T02:03:13;17.40;99.90
16966;DHT22;8599;47.852;12.070;2022-08-25T02:05:40;17.40;99.90
16966;DHT22;8599;47.852;12.070;2022-08-25T02:08:07;17.40;99.90
16966;DHT22;8599;47.852;12.070;2022-08-25T02:10:34;17.20;99.90
16966;DHT22;8599;47.852;12.070;2022-08-25T02:13:02;17.10;99.90
16966;DHT22;8599;47.852;12.070;2022-08-25T02:15:30;16.90;99.90
16966;DHT22;8599;47.852;12.070;2022-08-25T02:17:57;16.90;99.90
16966;DHT22;8599;47.852;12.070;2022-08-25T02:20:25;16.90;99.90
16966;DHT22;8599;47.852;12.070;2022-08-25T02:22:52;17.00;99.90
16966;DHT22;8599;47.852;12.070;2022-08-25T02:25:19;17.00;99.90
16966;DHT22;8599;47.852;12.070;2022-08-25T02:27:46;17.10;99.90
16966;DHT22;8599;47.852;12.070;2022-08-25T02:30:15;17.10;99.90
16966;DHT22;8599;47.852;12.070;2022-08-25T02:32:42;17.10;99.90
16966;DHT22;8599;47.852;12.070;2022-08-25T02:35:10;17.10;99.90
16966;DHT22;8599;47.852;12.070;2022-08-25T02:37:36;17.10;99.90
16966;DHT22;8599;47.852;12.070;2022-08-25T02:40:05;16.90;99.90
16966;DHT22;8599;47.852;12.070;2022-08-25T02:42:32;16.80;99.90
16966;DHT22;8599;47.852;12.070;2022-08-25T02:44:59;16.80;99.90
16966;DHT22;8599;47.852;12.070;2022-08-25T02:47:27;16.80;99.90
16966;DHT22;8599;47.852;12.070;2022-08-25T02:49:56;16.90;99.90
16966;DHT22;8599;47.852;12.070;2022-08-25T02:52:23;16.90;99.90
16966;DHT22;8599;47.852;12.070;2022-08-25T02:54:50;17.00;99.90
16966;DHT22;8599;47.852;12.070;2022-08-25T02:57:17;16.90;99.90
16966;DHT22;8599;47.852;12.070;2022-08-25T02:59:44;16.90;99.90
16966;DHT22;8599;47.852;12.070;2022-08-25T03:02:13;16.90;99.90
16966;DHT22;8599;47.852;12.070;2022-08-25T03:04:42;16.80;99.90
16966;DHT22;8599;47.852;12.070;2022-08-25T03:07:10;16.80;99.90
16966;DHT22;8599;47.852;12.070;2022-08-25T03:09:37;16.70;99.90
16966;DHT22;8599;47.852;12.070;2022-08-25T03:12:04;16.80;99.90
16966;DHT22;8599;47.852;12.070;2022-08-25T03:14:31;16.90;99.90
16966;DHT22;8599;47.852;12.070;2022-08-25T03:16:58;16.80;99.90
16966;DHT22;8599;47.852;12.070;2022-08-25T03:19:25;16.70;99.90
16966;DHT22;8599;47.852;12.070;2022-08-25T03:21:53;16.60;99.90
16966;DHT22;8599;47.852;12.070;2022-08-25T03:24:22;16.70;99.90
16966;DHT22;8599;47.852;12.070;2022-08-25T03:26:48;16.60;99.90
16966;DHT22;8599;47.852;12.070;2022-08-25T03:29:22;16.70;99.90
16966;DHT22;8599;47.852;12.070;2022-08-25T03:31:49;16.70;99.90
16966;DHT22;8599;47.852;12.070;2022-08-25T03:34:17;16.60;99.90
16966;DHT22;8599;47.852;12.070;2022-08-25T03:36:45;16.60;99.90
16966;DHT22;8599;47.852;12.070;2022-08-25T03:39:15;16.60;99.90
16966;DHT22;8599;47.852;12.070;2022-08-25T03:41:42;16.50;99.90
16966;DHT22;8599;47.852;12.070;2022-08-25T03:44:10;16.50;99.90
16966;DHT22;8599;47.852;12.070;2022-08-25T03:46:40;16.40;99.90
16966;DHT22;8599;47.852;12.070;2022-08-25T03:49:10;16.40;99.90
16966;DHT22;8599;47.852;12.070;2022-08-25T03:51:41;16.40;99.90
16966;DHT22;8599;47.852;12.070;2022-08-25T03:54:09;16.50;99.90
16966;DHT22;8599;47.852;12.070;2022-08-25T03:56:38;16.50;99.90
16966;DHT22;8599;47.852;12.070;2022-08-25T03:59:05;16.50;99.90
16966;DHT22;8599;47.852;12.070;2022-08-25T04:01:33;16.60;99.90
16966;DHT22;8599;47.852;12.070;2022-08-25T04:04:00;16.50;99.90
16966;DHT22;8599;47.852;12.070;2022-08-25T04:06:27;16.40;99.90
16966;DHT22;8599;47.852;12.070;2022-08-25T04:08:55;16.30;99.90
16966;DHT22;8599;47.852;12.070;2022-08-25T04:11:24;16.30;99.90
16966;DHT22;8599;47.852;12.070;2022-08-25T04:13:55;16.20;99.90
16966;DHT22;8599;47.852;12.070;2022-08-25T04:16:24;16.30;99.90
16966;DHT22;8599;47.852;12.070;2022-08-25T04:18:52;16.20;99.90
16966;DHT22;8599;47.852;12.070;2022-08-25T04:21:20;16.20;99.90
16966;DHT22;8599;47.852;12.070;2022-08-25T04:23:48;16.20;99.90
16966;DHT22;8599;47.852;12.070;2022-08-25T04:26:17;16.20;99.90
16966;DHT22;8599;47.852;12.070;2022-08-25T04:28:45;16.00;99.90
16966;DHT22;8599;47.852;12.070;2022-08-25T04:31:15;15.90;99.90
16966;DHT22;8599;47.852;12.070;2022-08-25T04:33:43;15.80;99.90
16966;DHT22;8599;47.852;12.070;2022-08-25T04:36:13;15.90;99.90
16966;DHT22;8599;47.852;12.070;2022-08-25T04:38:41;16.10;99.90
16966;DHT22;8599;47.852;12.070;2022-08-25T04:41:10;16.10;99.90
16966;DHT22;8599;47.852;12.070;2022-08-25T04:43:39;16.10;99.90
16966;DHT22;8599;47.852;12.070;2022-08-25T04:46:08;16.10;99.90
16966;DHT22;8599;47.852;12.070;2022-08-25T04:48:38;16.20;99.90
16966;DHT22;8599;47.852;12.070;2022-08-25T04:51:07;16.20;99.90
16966;DHT22;8599;47.852;12.070;2022-08-25T04:53:34;16.20;99.90
16966;DHT22;8599;47.852;12.070;2022-08-25T04:56:04;16.10;99.90
16966;DHT22;8599;47.852;12.070;2022-08-25T04:58:31;16.20;99.90
16966;DHT22;8599;47.852;12.070;2022-08-25T05:01:01;16.30;99.90
16966;DHT22;8599;47.852;12.070;2022-08-25T05:03:27;16.40;99.90
16966;DHT22;8599;47.852;12.070;2022-08-25T05:05:57;16.60;99.90
16966;DHT22;8599;47.852;12.070;2022-08-25T05:08:24;16.70;99.90
16966;DHT22;8599;47.852;12.070;2022-08-25T05:10:51;16.70;99.90
16966;DHT22;8599;47.852;12.070;2022-08-25T05:13:19;16.60;99.90
16966;DHT22;8599;47.852;12.070;2022-08-25T05:15:51;16.70;99.90
16966;DHT22;8599;47.852;12.070;2022-08-25T05:18:20;16.60;99.90
16966;DHT22;8599;47.852;12.070;2022-08-25T05:20:48;16.60;99.90
16966;DHT22;8599;47.852;12.070;2022-08-25T05:23:17;16.60;99.90
16966;DHT22;8599;47.852;12.070;2022-08-25T05:25:43;16.70;99.90
16966;DHT22;8599;47.852;12.070;2022-08-25T05:28:10;16.70;99.90
16966;DHT22;8599;47.852;12.070;2022-08-25T05:30:40;16.70;99.90
16966;DHT22;8599;47.852;12.070;2022-08-25T05:33:07;16.80;99.90
16966;DHT22;8599;47.852;12.070;2022-08-25T05:35:34;16.80;99.90
16966;DHT22;8599;47.852;12.070;2022-08-25T05:38:01;16.90;99.90
16966;DHT22;8599;47.852;12.070;2022-08-25T05:40:30;17.00;99.90
16966;DHT22;8599;47.852;12.070;2022-08-25T05:42:57;17.00;99.90
16966;DHT22;8599;47.852;12.070;2022-08-25T05:45:24;17.00;99.90
16966;DHT22;8599;47.852;12.070;2022-08-25T05:47:51;17.00;99.90
16966;DHT22;8599;47.852;12.070;2022-08-25T05:50:18;17.00;99.90
16966;DHT22;8599;47.852;12.070;2022-08-25T05:52:45;17.00;99.90
16966;DHT22;8599;47.852;12.070;2022-08-25T05:55:12;17.00;99.90
16966;DHT22;8599;47.852;12.070;2022-08-25T05:57:41;17.00;99.90
16966;DHT22;8599;47.852;12.070;2022-08-25T06:00:09;17.00;99.90
16966;DHT22;8599;47.852;12.070;2022-08-25T06:02:36;17.00;99.90
16966;DHT22;8599;47.852;12.070;2022-08-25T06:05:13;17.20;99.90
16966;DHT22;8599;47.852;12.070;2022-08-25T06:07:41;17.30;99.90
16966;DHT22;8599;47.852;12.070;2022-08-25T06:10:09;17.40;99.90
16966;DHT22;8599;47.852;12.070;2022-08-25T06:12:39;17.50;99.90
16966;DHT22;8599;47.852;12.070;2022-08-25T06:15:12;17.50;99.90
16966;DHT22;8599;47.852;12.070;2022-08-25T06:17:39;17.60;99.90
16966;DHT22;8599;47.852;12.070;2022-08-25T06:20:09;17.70;99.90
16966;DHT22;8599;47.852;12.070;2022-08-25T06:22:37;17.80;99.90
16966;DHT22;8599;47.852;12.070;2022-08-25T06:25:06;17.90;99.90
16966;DHT22;8599;47.852;12.070;2022-08-25T06:27:34;18.10;99.90
16966;DHT22;8599;47.852;12.070;2022-08-25T06:30:02;18.10;99.90
16966;DHT22;8599;47.852;12.070;2022-08-25T06:32:31;18.30;99.90
16966;DHT22;8599;47.852;12.070;2022-08-25T06:34:58;18.40;99.90
16966;DHT22;8599;47.852;12.070;2022-08-25T06:37:25;18.40;99.90
16966;DHT22;8599;47.852;12.070;2022-08-25T06:39:52;18.60;99.90
16966;DHT22;8599;47.852;12.070;2022-08-25T06:42:19;18.60;99.90
16966;DHT22;8599;47.852;12.070;2022-08-25T06:44:46;18.70;99.90
16966;DHT22;8599;47.852;12.070;2022-08-25T06:47:13;18.80;99.90
16966;DHT22;8599;47.852;12.070;2022-08-25T06:49:42;18.80;99.90
16966;DHT22;8599;47.852;12.070;2022-08-25T06:52:09;18.80;99.90
16966;DHT22;8599;47.852;12.070;2022-08-25T06:54:36;18.90;99.90
16966;DHT22;8599;47.852;12.070;2022-08-25T06:57:04;18.90;99.90
16966;DHT22;8599;47.852;12.070;2022-08-25T06:59:31;19.00;99.90
16966;DHT22;8599;47.852;12.070;2022-08-25T07:01:59;19.00;99.90
16966;DHT22;8599;47.852;12.070;2022-08-25T07:04:26;19.10;99.90
16966;DHT22;8599;47.852;12.070;2022-08-25T07:06:54;19.10;99.90
16966;DHT22;8599;47.852;12.070;2022-08-25T07:09:21;19.10;99.90
16966;DHT22;8599;47.852;12.070;2022-08-25T07:11:48;19.20;99.90
16966;DHT22;8599;47.852;12.070;2022-08-25T07:14:16;19.20;99.90
16966;DHT22;8599;47.852;12.070;2022-08-25T07:16:43;19.20;99.90
16966;DHT22;8599;47.852;12.070;2022-08-25T07:19:10;19.20;99.90
16966;DHT22;8599;47.852;12.070;2022-08-25T07:21:39;19.30;99.90
16966;DHT22;8599;47.852;12.070;2022-08-25T07:24:09;19.40;99.90
16966;DHT22;8599;47.852;12.070;2022-08-25T07:26:38;19.50;99.90
16966;DHT22;8599;47.852;12.070;2022-08-25T07:29:08;19.50;99.90
16966;DHT22;8599;47.852;12.070;2022-08-25T07:31:35;19.50;99.90
16966;DHT22;8599;47.852;12.070;2022-08-25T07:34:02;19.50;99.90
16966;DHT22;8599;47.852;12.070;2022-08-25T07:36:47;19.70;99.90
16966;DHT22;8599;47.852;12.070;2022-08-25T07:39:15;19.70;99.90
16966;DHT22;8599;47.852;12.070;2022-08-25T07:41:43;19.80;99.90
16966;DHT22;8599;47.852;12.070;2022-08-25T07:44:10;19.70;99.90
16966;DHT22;8599;47.852;12.070;2022-08-25T07:46:38;19.80;99.90
16966;DHT22;8599;47.852;12.070;2022-08-25T07:49:05;19.60;99.90
16966;DHT22;8599;47.852;12.070;2022-08-25T07:51:33;19.60;99.90
16966;DHT22;8599;47.852;12.070;2022-08-25T07:53:59;19.70;99.90
16966;DHT22;8599;47.852;12.070;2022-08-25T07:56:28;19.80;99.90
16966;DHT22;8599;47.852;12.070;2022-08-25T07:58:55;19.80;99.90
16966;DHT22;8599;47.852;12.070;2022-08-25T08:01:23;19.80;99.90
16966;DHT22;8599;47.852;12.070;2022-08-25T08:03:50;19.80;99.90
16966;DHT22;8599;47.852;12.070;2022-08-25T08:06:19;19.90;99.90
16966;DHT22;8599;47.852;12.070;2022-08-25T08:08:51;20.00;99.90
16966;DHT22;8599;47.852;12.070;2022-08-25T08:11:21;20.10;99.90
16966;DHT22;8599;47.852;12.070;2022-08-25T08:13:49;20.00;99.90
16966;DHT22;8599;47.852;12.070;2022-08-25T08:16:18;20.10;99.90
16966;DHT22;8599;47.852;12.070;2022-08-25T08:18:45;20.20;99.90
16966;DHT22;8599;47.852;12.070;2022-08-25T08:21:14;20.20;99.90
16966;DHT22;8599;47.852;12.070;2022-08-25T08:23:41;20.30;99.90
16966;DHT22;8599;47.852;12.070;2022-08-25T08:26:07;20.30;99.90
16966;DHT22;8599;47.852;12.070;2022-08-25T08:28:34;20.40;99.90
16966;DHT22;8599;47.852;12.070;2022-08-25T08:31:03;20.50;99.90
16966;DHT22;8599;47.852;12.070;2022-08-25T08:33:30;20.60;99.90
16966;DHT22;8599;47.852;12.070;2022-08-25T08:35:58;20.70;99.90
16966;DHT22;8599;47.852;12.070;2022-08-25T08:38:26;20.70;99.90
16966;DHT22;8599;47.852;12.070;2022-08-25T08:41:02;20.80;99.90
16966;DHT22;8599;47.852;12.070;2022-08-25T08:43:53;20.90;99.90
16966;DHT22;8599;47.852;12.070;2022-08-25T08:46:24;21.00;99.90
16966;DHT22;8599;47.852;12.070;2022-08-25T08:49:01;21.00;99.90
16966;DHT22;8599;47.852;12.070;2022-08-25T08:51:32;21.10;99.90
16966;DHT22;8599;47.852;12.070;2022-08-25T08:54:07;21.20;99.90
16966;DHT22;8599;47.852;12.070;2022-08-25T08:56:39;21.30;99.90
16966;DHT22;8599;47.852;12.070;2022-08-25T08:59:10;21.30;99.90
16966;DHT22;8599;47.852;12.070;2022-08-25T09:01:45;21.20;99.90
16966;DHT22;8599;47.852;12.070;2022-08-25T09:04:17;21.20;99.90
16966;DHT22;8599;47.852;12.070;2022-08-25T09:06:48;21.30;99.90
16966;DHT22;8599;47.852;12.070;2022-08-25T09:09:22;21.40;99.90
16966;DHT22;8599;47.852;12.070;2022-08-25T09:11:57;21.50;99.90
16966;DHT22;8599;47.852;12.070;2022-08-25T09:14:41;21.50;99.90
16966;DHT22;8599;47.852;12.070;2022-08-25T09:17:16;21.40;99.90
16966;DHT22;8599;47.852;12.070;2022-08-25T09:20:06;21.50;99.90
16966;DHT22;8599;47.852;12.070;2022-08-25T09:22:43;21.70;99.90
16966;DHT22;8599;47.852;12.070;2022-08-25T09:25:16;21.70;99.90
16966;DHT22;8599;47.852;12.070;2022-08-25T09:27:50;21.90;99.90
16966;DHT22;8599;47.852;12.070;2022-08-25T09:30:21;22.00;99.90
16966;DHT22;8599;47.852;12.070;2022-08-25T09:32:51;22.00;99.90
16966;DHT22;8599;47.852;12.070;2022-08-25T09:35:29;22.10;99.90
16966;DHT22;8599;47.852;12.070;2022-08-25T09:37:58;22.10;99.90
16966;DHT22;8599;47.852;12.070;2022-08-25T09:40:27;22.10;99.90
16966;DHT22;8599;47.852;12.070;2022-08-25T09:42:58;22.00;99.90
16966;DHT22;8599;47.852;12.070;2022-08-25T09:45:39;22.00;99.90
16966;DHT22;8599;47.852;12.070;2022-08-25T09:48:22;22.10;99.90
16966;DHT22;8599;47.852;12.070;2022-08-25T09:50:52;22.20;99.90
16966;DHT22;8599;47.852;12.070;2022-08-25T09:53:20;22.30;99.90
16966;DHT22;8599;47.852;12.070;2022-08-25T09:55:55;22.40;99.90
16966;DHT22;8599;47.852;12.070;2022-08-25T09:58:23;22.40;99.90
16966;DHT22;8599;47.852;12.070;2022-08-25T10:01:12;22.50;99.90
16966;DHT22;8599;47.852;12.070;2022-08-25T10:03:59;22.60;99.90
16966;DHT22;8599;47.852;12.070;2022-08-25T10:06:29;22.70;99.90
16966;DHT22;8599;47.852;12.070;2022-08-25T10:08:58;22.80;99.90
16966;DHT22;8599;47.852;12.070;2022-08-25T10:11:37;22.80;99.90
16966;DHT22;8599;47.852;12.070;2022-08-25T10:14:21;22.80;99.90
16966;DHT22;8599;47.852;12.070;2022-08-25T10:16:52;22.90;99.90
16966;DHT22;8599;47.852;12.070;2022-08-25T10:19:37;23.10;99.90
16966;DHT22;8599;47.852;12.070;2022-08-25T10:22:07;23.20;99.90
16966;DHT22;8599;47.852;12.070;2022-08-25T10:24:34;23.20;99.90
16966;DHT22;8599;47.852;12.070;2022-08-25T10:27:08;23.10;99.90
16966;DHT22;8599;47.852;12.070;2022-08-25T10:30:09;23.30;99.90
16966;DHT22;8599;47.852;12.070;2022-08-25T10:33:06;23.30;99.90
16966;DHT22;8599;47.852;12.070;2022-08-25T10:35:47;23.50;99.90
16966;DHT22;8599;47.852;12.070;2022-08-25T10:38:31;23.50;99.90
16966;DHT22;8599;47.852;12.070;2022-08-25T10:41:08;23.50;99.90
16966;DHT22;8599;47.852;12.070;2022-08-25T10:43:42;23.60;99.90
16966;DHT22;8599;47.852;12.070;2022-08-25T10:46:15;23.70;99.90
16966;DHT22;8599;47.852;12.070;2022-08-25T10:48:54;23.70;99.90
16966;DHT22;8599;47.852;12.070;2022-08-25T10:51:42;23.80;99.90
16966;DHT22;8599;47.852;12.070;2022-08-25T10:54:27;23.90;99.90
16966;DHT22;8599;47.852;12.070;2022-08-25T10:57:04;23.90;99.90
16966;DHT22;8599;47.852;12.070;2022-08-25T10:59:49;24.10;99.90
16966;DHT22;8599;47.852;12.070;2022-08-25T11:05:32;24.30;99.90
16966;DHT22;8599;47.852;12.070;2022-08-25T11:08:07;24.20;99.90
16966;DHT22;8599;47.852;12.070;2022-08-25T11:10:41;24.30;99.90
16966;DHT22;8599;47.852;12.070;2022-08-25T11:13:15;24.40;99.90
16966;DHT22;8599;47.852;12.070;2022-08-25T11:15:51;24.60;99.90
16966;DHT22;8599;47.852;12.070;2022-08-25T11:18:19;24.80;99.90
16966;DHT22;8599;47.852;12.070;2022-08-25T11:20:51;24.80;99.90
16966;DHT22;8599;47.852;12.070;2022-08-25T11:23:23;24.80;99.90
16966;DHT22;8599;47.852;12.070;2022-08-25T11:25:56;24.80;99.90
16966;DHT22;8599;47.852;12.070;2022-08-25T11:28:29;24.90;99.90
16966;DHT22;8599;47.852;12.070;2022-08-25T11:30:58;25.10;99.90
16966;DHT22;8599;47.852;12.070;2022-08-25T11:33:27;25.20;99.90
16966;DHT22;8599;47.852;12.070;2022-08-25T11:35:58;25.30;99.90
16966;DHT22;8599;47.852;12.070;2022-08-25T11:38:46;25.40;99.90
16966;DHT22;8599;47.852;12.070;2022-08-25T11:41:23;25.40;99.90
16966;DHT22;8599;47.852;12.070;2022-08-25T11:44:04;25.30;99.90
16966;DHT22;8599;47.852;12.070;2022-08-25T11:46:48;25.40;99.90
16966;DHT22;8599;47.852;12.070;2022-08-25T11:49:38;25.60;99.90
16966;DHT22;8599;47.852;12.070;2022-08-25T11:52:38;25.60;99.90
16966;DHT22;8599;47.852;12.070;2022-08-25T11:55:13;26.00;99.90
16966;DHT22;8599;47.852;12.070;2022-08-25T11:57:41;26.30;99.90
16966;DHT22;8599;47.852;12.070;2022-08-25T12:00:11;26.30;99.90
16966;DHT22;8599;47.852;12.070;2022-08-25T12:02:41;26.50;99.90
16966;DHT22;8599;47.852;12.070;2022-08-25T12:08:02;26.50;99.90
16966;DHT22;8599;47.852;12.070;2022-08-25T12:10:59;26.60;99.90
16966;DHT22;8599;47.852;12.070;2022-08-25T12:13:39;26.50;99.90
16966;DHT22;8599;47.852;12.070;2022-08-25T12:16:30;26.40;99.90
16966;DHT22;8599;47.852;12.070;2022-08-25T12:19:29;26.60;99.90
16966;DHT22;8599;47.852;12.070;2022-08-25T12:22:39;26.50;99.90
16966;DHT22;8599;47.852;12.070;2022-08-25T12:25:13;26.90;99.90
16966;DHT22;8599;47.852;12.070;2022-08-25T12:27:53;26.90;99.90
16966;DHT22;8599;47.852;12.070;2022-08-25T12:30:26;26.80;99.90
16966;DHT22;8599;47.852;12.070;2022-08-25T12:33:03;26.90;99.90
16966;DHT22;8599;47.852;12.070;2022-08-25T12:35:37;27.10;99.90
16966;DHT22;8599;47.852;12.070;2022-08-25T12:38:08;27.00;99.90
16966;DHT22;8599;47.852;12.070;2022-08-25T12:40:53;27.00;99.90
16966;DHT22;8599;47.852;12.070;2022-08-25T12:43:27;27.00;99.90
16966;DHT22;8599;47.852;12.070;2022-08-25T12:46:36;27.30;99.90
16966;DHT22;8599;47.852;12.070;2022-08-25T12:49:11;27.50;99.90
16966;DHT22;8599;47.852;12.070;2022-08-25T12:51:57;27.20;99.90
16966;DHT22;8599;47.852;12.070;2022-08-25T12:54:41;27.50;99.90
16966;DHT22;8599;47.852;12.070;2022-08-25T12:57:27;27.60;99.90
16966;DHT22;8599;47.852;12.070;2022-08-25T12:59:59;27.70;99.90
16966;DHT22;8599;47.852;12.070;2022-08-25T13:11:50;28.40;99.70
16966;DHT22;8599;47.852;12.070;2022-08-25T13:14:21;28.40;99.20
16966;DHT22;8599;47.852;12.070;2022-08-25T13:16:55;28.60;99.60
16966;DHT22;8599;47.852;12.070;2022-08-25T13:19:23;28.40;99.60
16966;DHT22;8599;47.852;12.070;2022-08-25T13:21:50;28.30;99.20
16966;DHT22;8599;47.852;12.070;2022-08-25T13:24:21;28.30;99.30
16966;DHT22;8599;47.852;12.070;2022-08-25T13:26:51;28.50;99.30
16966;DHT22;8599;47.852;12.070;2022-08-25T13:29:22;28.70;99.90
16966;DHT22;8599;47.852;12.070;2022-08-25T13:31:53;28.70;99.90
16966;DHT22;8599;47.852;12.070;2022-08-25T13:34:23;29.00;99.90
16966;DHT22;8599;47.852;12.070;2022-08-25T13:36:51;29.50;99.90
16966;DHT22;8599;47.852;12.070;2022-08-25T13:39:36;29.80;98.90
16966;DHT22;8599;47.852;12.070;2022-08-25T13:42:05;29.80;98.20
16966;DHT22;8599;47.852;12.070;2022-08-25T13:44:37;29.30;97.60
16966;DHT22;8599;47.852;12.070;2022-08-25T13:47:07;29.10;98.80
16966;DHT22;8599;47.852;12.070;2022-08-25T13:49:35;29.10;98.60
16966;DHT22;8599;47.852;12.070;2022-08-25T13:52:03;29.00;98.50
16966;DHT22;8599;47.852;12.070;2022-08-25T13:54:33;29.20;97.60
16966;DHT22;8599;47.852;12.070;2022-08-25T13:57:06;28.80;97.70
16966;DHT22;8599;47.852;12.070;2022-08-25T13:59:38;28.50;98.50
16966;DHT22;8599;47.852;12.070;2022-08-25T14:02:09;28.80;98.20
16966;DHT22;8599;47.852;12.070;2022-08-25T14:04:46;29.10;97.70
16966;DHT22;8599;47.852;12.070;2022-08-25T14:07:25;29.10;97.90
16966;DHT22;8599;47.852;12.070;2022-08-25T14:09:54;28.70;97.70
16966;DHT22;8599;47.852;12.070;2022-08-25T14:12:31;28.20;98.40
16966;DHT22;8599;47.852;12.070;2022-08-25T14:15:01;28.00;99.10
16966;DHT22;8599;47.852;12.070;2022-08-25T14:17:31;28.30;98.50
16966;DHT22;8599;47.852;12.070;2022-08-25T14:19:58;28.70;98.60
16966;DHT22;8599;47.852;12.070;2022-08-25T14:22:25;29.20;96.70
16966;DHT22;8599;47.852;12.070;2022-08-25T14:24:53;29.60;95.80
16966;DHT22;8599;47.852;12.070;2022-08-25T14:27:20;29.80;95.50
16966;DHT22;8599;47.852;12.070;2022-08-25T14:29:48;29.80;95.90
16966;DHT22;8599;47.852;12.070;2022-08-25T14:32:15;29.90;95.40
16966;DHT22;8599;47.852;12.070;2022-08-25T14:34:44;30.40;95.00
16966;DHT22;8599;47.852;12.070;2022-08-25T14:37:15;30.20;94.40
16966;DHT22;8599;47.852;12.070;2022-08-25T14:39:42;30.00;95.10
16966;DHT22;8599;47.852;12.070;2022-08-25T14:42:09;29.70;96.00
16966;DHT22;8599;47.852;12.070;2022-08-25T14:44:36;29.10;96.30
16966;DHT22;8599;47.852;12.070;2022-08-25T14:47:05;29.10;96.40
16966;DHT22;8599;47.852;12.070;2022-08-25T14:49:35;29.20;96.30
16966;DHT22;8599;47.852;12.070;2022-08-25T14:52:07;29.10;95.80
16966;DHT22;8599;47.852;12.070;2022-08-25T14:54:35;29.00;96.20
16966;DHT22;8599;47.852;12.070;2022-08-25T14:57:02;28.90;96.30
16966;DHT22;8599;47.852;12.070;2022-08-25T14:59:28;28.80;96.40
16966;DHT22;8599;47.852;12.070;2022-08-25T15:01:57;28.80;97.20
16966;DHT22;8599;47.852;12.070;2022-08-25T15:04:26;29.10;97.70
16966;DHT22;8599;47.852;12.070;2022-08-25T15:06:57;29.40;97.30
16966;DHT22;8599;47.852;12.070;2022-08-25T15:09:26;29.80;96.50
16966;DHT22;8599;47.852;12.070;2022-08-25T15:11:53;30.20;95.90
16966;DHT22;8599;47.852;12.070;2022-08-25T15:14:22;30.50;95.50
16966;DHT22;8599;47.852;12.070;2022-08-25T15:16:51;30.10;96.60
16966;DHT22;8599;47.852;12.070;2022-08-25T15:19:21;30.00;96.10
16966;DHT22;8599;47.852;12.070;2022-08-25T15:21:48;29.80;96.70
16966;DHT22;8599;47.852;12.070;2022-08-25T15:24:17;29.60;97.70
16966;DHT22;8599;47.852;12.070;2022-08-25T15:26:48;29.10;97.60
16966;DHT22;8599;47.852;12.070;2022-08-25T15:29:16;28.70;98.00
16966;DHT22;8599;47.852;12.070;2022-08-25T15:31:44;28.50;99.00
16966;DHT22;8599;47.852;12.070;2022-08-25T15:34:11;28.20;99.10
16966;DHT22;8599;47.852;12.070;2022-08-25T15:36:39;28.10;99.80
16966;DHT22;8599;47.852;12.070;2022-08-25T15:39:06;27.90;99.90
16966;DHT22;8599;47.852;12.070;2022-08-25T15:41:33;27.80;99.90
16966;DHT22;8599;47.852;12.070;2022-08-25T15:44:03;27.60;99.90
16966;DHT22;8599;47.852;12.070;2022-08-25T15:46:32;27.50;99.90
16966;DHT22;8599;47.852;12.070;2022-08-25T15:48:59;27.50;99.90
16966;DHT22;8599;47.852;12.070;2022-08-25T15:51:26;27.50;99.90
16966;DHT22;8599;47.852;12.070;2022-08-25T15:53:53;27.50;99.90
16966;DHT22;8599;47.852;12.070;2022-08-25T15:56:20;27.40;99.90
16966;DHT22;8599;47.852;12.070;2022-08-25T15:58:48;27.40;99.90
16966;DHT22;8599;47.852;12.070;2022-08-25T16:01:18;27.40;99.90
16966;DHT22;8599;47.852;12.070;2022-08-25T16:03:46;27.50;99.90
16966;DHT22;8599;47.852;12.070;2022-08-25T16:06:13;27.40;99.90
16966;DHT22;8599;47.852;12.070;2022-08-25T16:08:40;27.40;99.90